sensor_id;sensor_type;location;lat;lon;timestamp;P1;durP1;ratioP1;P2;durP2;ratioP2
51298;SDS011;37382;45.192;9.790;2023-06-10T00:02:26;20.65;;;16.30;;
51298;SDS011;37382;45.192;9.790;2023-06-10T00:04:54;19.25;;;14.85;;
51298;SDS011;37382;45.192;9.790;2023-06-10T00:07:22;14.80;;;13.32;;
51298;SDS011;37382;45.192;9.790;2023-06-10T00:09:49;17.30;;;13.05;;
51298;SDS011;37382;45.192;9.790;2023-06-10T00:12:18;15.80;;;13.73;;
51298;SDS011;37382;45.192;9.790;2023-06-10T00:14:47;15.90;;;12.48;;
51298;SDS011;37382;45.192;9.790;2023-06-10T00:17:17;14.23;;;11.43;;
51298;SDS011;37382;45.192;9.790;2023-06-10T00:19:45;16.77;;;11.73;;
51298;SDS011;37382;45.192;9.790;2023-06-10T00:22:14;13.57;;;10.48;;
51298;SDS011;37382;45.192;9.790;2023-06-10T00:24:42;13.15;;;9.70;;
51298;SDS011;37382;45.192;9.790;2023-06-10T00:27:10;13.02;;;9.13;;
51298;SDS011;37382;45.192;9.790;2023-06-10T00:29:37;13.30;;;7.45;;
51298;SDS011;37382;45.192;9.790;2023-06-10T00:32:06;16.50;;;8.60;;
51298;SDS011;37382;45.192;9.790;2023-06-10T00:34:34;10.52;;;7.75;;
51298;SDS011;37382;45.192;9.790;2023-06-10T00:37:02;10.90;;;8.00;;
51298;SDS011;37382;45.192;9.790;2023-06-10T00:39:30;16.20;;;7.88;;
51298;SDS011;37382;45.192;9.790;2023-06-10T00:41:58;11.93;;;7.95;;
51298;SDS011;37382;45.192;9.790;2023-06-10T00:44:26;8.80;;;7.93;;
51298;SDS011;37382;45.192;9.790;2023-06-10T00:46:54;10.77;;;7.68;;
51298;SDS011;37382;45.192;9.790;2023-06-10T00:49:23;11.05;;;7.32;;
51298;SDS011;37382;45.192;9.790;2023-06-10T00:51:51;13.63;;;6.75;;
51298;SDS011;37382;45.192;9.790;2023-06-10T00:54:20;12.35;;;6.53;;
51298;SDS011;37382;45.192;9.790;2023-06-10T00:56:49;14.02;;;6.80;;
51298;SDS011;37382;45.192;9.790;2023-06-10T00:59:16;9.85;;;6.43;;
51298;SDS011;37382;45.192;9.790;2023-06-10T01:01:45;8.38;;;5.63;;
51298;SDS011;37382;45.192;9.790;2023-06-10T01:04:14;8.35;;;6.10;;
51298;SDS011;37382;45.192;9.790;2023-06-10T01:06:47;12.63;;;6.68;;
51298;SDS011;37382;45.192;9.790;2023-06-10T01:09:38;16.67;;;6.38;;
51298;SDS011;37382;45.192;9.790;2023-06-10T01:12:27;10.98;;;6.07;;
51298;SDS011;37382;45.192;9.790;2023-06-10T01:14:59;13.13;;;6.40;;
51298;SDS011;37382;45.192;9.790;2023-06-10T01:17:28;10.57;;;6.95;;
51298;SDS011;37382;45.192;9.790;2023-06-10T01:19:57;13.88;;;6.07;;
51298;SDS011;37382;45.192;9.790;2023-06-10T01:22:26;14.98;;;6.65;;
51298;SDS011;37382;45.192;9.790;2023-06-10T01:24:59;12.95;;;6.75;;
51298;SDS011;37382;45.192;9.790;2023-06-10T01:27:28;13.00;;;6.35;;
51298;SDS011;37382;45.192;9.790;2023-06-10T01:30:08;15.73;;;7.15;;
51298;SDS011;37382;45.192;9.790;2023-06-10T01:32:48;12.27;;;6.32;;
51298;SDS011;37382;45.192;9.790;2023-06-10T01:35:18;14.13;;;7.28;;
51298;SDS011;37382;45.192;9.790;2023-06-10T01:37:51;15.07;;;7.30;;
51298;SDS011;37382;45.192;9.790;2023-06-10T01:40:23;15.95;;;6.55;;
51298;SDS011;37382;45.192;9.790;2023-06-10T01:42:50;11.38;;;6.38;;
51298;SDS011;37382;45.192;9.790;2023-06-10T01:45:19;12.55;;;6.70;;
51298;SDS011;37382;45.192;9.790;2023-06-10T01:47:46;16.55;;;7.47;;
51298;SDS011;37382;45.192;9.790;2023-06-10T01:50:14;10.43;;;6.60;;
51298;SDS011;37382;45.192;9.790;2023-06-10T01:52:43;10.95;;;6.97;;
51298;SDS011;37382;45.192;9.790;2023-06-10T01:55:10;9.85;;;6.70;;
51298;SDS011;37382;45.192;9.790;2023-06-10T01:57:39;8.82;;;6.22;;
51298;SDS011;37382;45.192;9.790;2023-06-10T02:00:07;16.55;;;7.40;;
51298;SDS011;37382;45.192;9.790;2023-06-10T02:02:41;11.05;;;8.05;;
51298;SDS011;37382;45.192;9.790;2023-06-10T02:05:09;12.93;;;7.47;;
51298;SDS011;37382;45.192;9.790;2023-06-10T02:07:37;13.75;;;7.82;;
51298;SDS011;37382;45.192;9.790;2023-06-10T02:10:06;16.13;;;8.25;;
51298;SDS011;37382;45.192;9.790;2023-06-10T02:12:34;16.92;;;7.80;;
51298;SDS011;37382;45.192;9.790;2023-06-10T02:15:01;15.45;;;7.95;;
51298;SDS011;37382;45.192;9.790;2023-06-10T02:17:29;12.43;;;7.82;;
51298;SDS011;37382;45.192;9.790;2023-06-10T02:19:57;17.90;;;7.95;;
51298;SDS011;37382;45.192;9.790;2023-06-10T02:22:26;13.85;;;8.15;;
51298;SDS011;37382;45.192;9.790;2023-06-10T02:24:54;15.20;;;7.95;;
51298;SDS011;37382;45.192;9.790;2023-06-10T02:27:22;12.85;;;8.25;;
51298;SDS011;37382;45.192;9.790;2023-06-10T02:29:50;8.80;;;7.85;;
51298;SDS011;37382;45.192;9.790;2023-06-10T02:32:17;16.30;;;7.65;;
51298;SDS011;37382;45.192;9.790;2023-06-10T02:34:45;16.10;;;9.40;;
51298;SDS011;37382;45.192;9.790;2023-06-10T02:37:13;13.98;;;8.45;;
51298;SDS011;37382;45.192;9.790;2023-06-10T02:39:42;11.63;;;8.23;;
51298;SDS011;37382;45.192;9.790;2023-06-10T02:42:11;16.05;;;8.35;;
51298;SDS011;37382;45.192;9.790;2023-06-10T02:44:39;11.25;;;7.88;;
51298;SDS011;37382;45.192;9.790;2023-06-10T02:47:09;10.50;;;7.85;;
51298;SDS011;37382;45.192;9.790;2023-06-10T02:49:38;15.57;;;8.80;;
51298;SDS011;37382;45.192;9.790;2023-06-10T02:52:05;12.95;;;8.68;;
51298;SDS011;37382;45.192;9.790;2023-06-10T02:54:34;20.00;;;8.30;;
51298;SDS011;37382;45.192;9.790;2023-06-10T02:57:02;15.23;;;8.68;;
51298;SDS011;37382;45.192;9.790;2023-06-10T02:59:30;16.48;;;8.65;;
51298;SDS011;37382;45.192;9.790;2023-06-10T03:01:58;14.90;;;8.85;;
51298;SDS011;37382;45.192;9.790;2023-06-10T03:04:31;15.32;;;8.95;;
51298;SDS011;37382;45.192;9.790;2023-06-10T03:07:07;13.82;;;9.32;;
51298;SDS011;37382;45.192;9.790;2023-06-10T03:09:35;13.13;;;9.70;;
51298;SDS011;37382;45.192;9.790;2023-06-10T03:12:05;13.68;;;9.18;;
51298;SDS011;37382;45.192;9.790;2023-06-10T03:14:39;19.00;;;10.07;;
51298;SDS011;37382;45.192;9.790;2023-06-10T03:17:07;12.48;;;8.38;;
51298;SDS011;37382;45.192;9.790;2023-06-10T03:19:36;14.02;;;8.82;;
51298;SDS011;37382;45.192;9.790;2023-06-10T03:22:23;14.88;;;8.18;;
51298;SDS011;37382;45.192;9.790;2023-06-10T03:24:58;9.85;;;8.05;;
51298;SDS011;37382;45.192;9.790;2023-06-10T03:27:28;11.48;;;7.90;;
51298;SDS011;37382;45.192;9.790;2023-06-10T03:30:00;11.68;;;7.93;;
51298;SDS011;37382;45.192;9.790;2023-06-10T03:32:28;9.27;;;7.78;;
51298;SDS011;37382;45.192;9.790;2023-06-10T03:34:56;15.13;;;8.60;;
51298;SDS011;37382;45.192;9.790;2023-06-10T03:37:28;11.10;;;8.07;;
51298;SDS011;37382;45.192;9.790;2023-06-10T03:39:55;12.15;;;8.02;;
51298;SDS011;37382;45.192;9.790;2023-06-10T03:42:23;11.90;;;8.07;;
51298;SDS011;37382;45.192;9.790;2023-06-10T03:44:51;11.27;;;7.97;;
51298;SDS011;37382;45.192;9.790;2023-06-10T03:47:19;11.23;;;7.75;;
51298;SDS011;37382;45.192;9.790;2023-06-10T03:49:47;14.80;;;8.02;;
51298;SDS011;37382;45.192;9.790;2023-06-10T03:52:16;14.20;;;7.60;;
51298;SDS011;37382;45.192;9.790;2023-06-10T03:54:43;15.05;;;7.38;;
51298;SDS011;37382;45.192;9.790;2023-06-10T03:57:10;12.00;;;7.30;;
51298;SDS011;37382;45.192;9.790;2023-06-10T03:59:38;11.35;;;6.63;;
51298;SDS011;37382;45.192;9.790;2023-06-10T04:02:06;9.60;;;6.50;;
51298;SDS011;37382;45.192;9.790;2023-06-10T04:04:35;14.13;;;7.00;;
51298;SDS011;37382;45.192;9.790;2023-06-10T04:07:04;11.13;;;6.80;;
51298;SDS011;37382;45.192;9.790;2023-06-10T04:09:33;14.13;;;7.35;;
51298;SDS011;37382;45.192;9.790;2023-06-10T04:12:02;13.38;;;6.65;;
51298;SDS011;37382;45.192;9.790;2023-06-10T04:17:04;10.68;;;6.38;;
51298;SDS011;37382;45.192;9.790;2023-06-10T04:19:34;12.80;;;6.63;;
51298;SDS011;37382;45.192;9.790;2023-06-10T04:22:02;13.98;;;7.47;;
51298;SDS011;37382;45.192;9.790;2023-06-10T04:24:32;11.57;;;7.18;;
51298;SDS011;37382;45.192;9.790;2023-06-10T04:27:00;12.65;;;7.38;;
51298;SDS011;37382;45.192;9.790;2023-06-10T04:29:31;14.25;;;7.20;;
51298;SDS011;37382;45.192;9.790;2023-06-10T04:31:59;13.10;;;6.85;;
51298;SDS011;37382;45.192;9.790;2023-06-10T04:34:29;14.25;;;7.68;;
51298;SDS011;37382;45.192;9.790;2023-06-10T04:36:56;13.38;;;7.00;;
51298;SDS011;37382;45.192;9.790;2023-06-10T04:39:24;15.07;;;7.90;;
51298;SDS011;37382;45.192;9.790;2023-06-10T04:41:52;10.18;;;7.13;;
51298;SDS011;37382;45.192;9.790;2023-06-10T04:44:20;13.80;;;7.40;;
51298;SDS011;37382;45.192;9.790;2023-06-10T04:46:48;17.20;;;7.50;;
51298;SDS011;37382;45.192;9.790;2023-06-10T04:49:15;13.68;;;7.57;;
51298;SDS011;37382;45.192;9.790;2023-06-10T04:51:43;12.65;;;8.15;;
51298;SDS011;37382;45.192;9.790;2023-06-10T04:54:10;11.02;;;7.03;;
51298;SDS011;37382;45.192;9.790;2023-06-10T04:56:38;13.93;;;7.25;;
51298;SDS011;37382;45.192;9.790;2023-06-10T04:59:06;12.95;;;6.95;;
51298;SDS011;37382;45.192;9.790;2023-06-10T05:01:33;15.48;;;7.20;;
51298;SDS011;37382;45.192;9.790;2023-06-10T05:04:01;15.73;;;7.28;;
51298;SDS011;37382;45.192;9.790;2023-06-10T05:06:29;10.30;;;7.15;;
51298;SDS011;37382;45.192;9.790;2023-06-10T05:08:56;18.63;;;7.13;;
51298;SDS011;37382;45.192;9.790;2023-06-10T05:11:24;18.38;;;7.35;;
51298;SDS011;37382;45.192;9.790;2023-06-10T05:13:52;9.38;;;7.07;;
51298;SDS011;37382;45.192;9.790;2023-06-10T05:16:19;11.00;;;6.88;;
51298;SDS011;37382;45.192;9.790;2023-06-10T05:18:47;15.73;;;7.38;;
51298;SDS011;37382;45.192;9.790;2023-06-10T05:21:14;13.60;;;6.78;;
51298;SDS011;37382;45.192;9.790;2023-06-10T05:23:42;13.15;;;6.70;;
51298;SDS011;37382;45.192;9.790;2023-06-10T05:26:10;10.77;;;6.72;;
51298;SDS011;37382;45.192;9.790;2023-06-10T05:28:37;11.43;;;7.18;;
51298;SDS011;37382;45.192;9.790;2023-06-10T05:31:05;14.73;;;7.63;;
51298;SDS011;37382;45.192;9.790;2023-06-10T05:33:32;18.83;;;7.63;;
51298;SDS011;37382;45.192;9.790;2023-06-10T05:35:59;14.00;;;7.70;;
51298;SDS011;37382;45.192;9.790;2023-06-10T05:38:27;14.35;;;7.45;;
51298;SDS011;37382;45.192;9.790;2023-06-10T05:40:54;15.63;;;7.60;;
51298;SDS011;37382;45.192;9.790;2023-06-10T05:43:23;11.07;;;7.22;;
51298;SDS011;37382;45.192;9.790;2023-06-10T05:45:52;19.17;;;6.80;;
51298;SDS011;37382;45.192;9.790;2023-06-10T05:48:19;11.65;;;7.32;;
51298;SDS011;37382;45.192;9.790;2023-06-10T05:50:47;13.18;;;7.78;;
51298;SDS011;37382;45.192;9.790;2023-06-10T05:53:15;14.43;;;7.97;;
51298;SDS011;37382;45.192;9.790;2023-06-10T05:55:43;14.68;;;7.30;;
51298;SDS011;37382;45.192;9.790;2023-06-10T05:58:13;14.02;;;7.97;;
51298;SDS011;37382;45.192;9.790;2023-06-10T06:00:41;13.02;;;7.55;;
51298;SDS011;37382;45.192;9.790;2023-06-10T06:03:08;9.93;;;6.90;;
51298;SDS011;37382;45.192;9.790;2023-06-10T06:05:36;11.27;;;7.97;;
51298;SDS011;37382;45.192;9.790;2023-06-10T06:08:05;15.60;;;7.20;;
51298;SDS011;37382;45.192;9.790;2023-06-10T06:10:33;9.40;;;7.45;;
51298;SDS011;37382;45.192;9.790;2023-06-10T06:13:01;9.75;;;7.38;;
51298;SDS011;37382;45.192;9.790;2023-06-10T06:15:29;13.05;;;7.10;;
51298;SDS011;37382;45.192;9.790;2023-06-10T06:17:57;11.10;;;7.70;;
51298;SDS011;37382;45.192;9.790;2023-06-10T06:20:24;15.55;;;8.45;;
51298;SDS011;37382;45.192;9.790;2023-06-10T06:22:51;11.95;;;8.00;;
51298;SDS011;37382;45.192;9.790;2023-06-10T06:25:19;12.45;;;8.13;;
51298;SDS011;37382;45.192;9.790;2023-06-10T06:27:47;16.38;;;7.72;;
51298;SDS011;37382;45.192;9.790;2023-06-10T06:30:14;16.67;;;8.93;;
51298;SDS011;37382;45.192;9.790;2023-06-10T06:32:41;10.15;;;8.45;;
51298;SDS011;37382;45.192;9.790;2023-06-10T06:35:09;14.35;;;8.35;;
51298;SDS011;37382;45.192;9.790;2023-06-10T06:37:37;15.90;;;7.60;;
51298;SDS011;37382;45.192;9.790;2023-06-10T06:40:19;16.27;;;7.85;;
51298;SDS011;37382;45.192;9.790;2023-06-10T06:42:46;17.90;;;8.02;;
51298;SDS011;37382;45.192;9.790;2023-06-10T06:45:19;13.65;;;7.35;;
51298;SDS011;37382;45.192;9.790;2023-06-10T06:47:47;13.70;;;7.25;;
51298;SDS011;37382;45.192;9.790;2023-06-10T06:50:15;17.73;;;7.50;;
51298;SDS011;37382;45.192;9.790;2023-06-10T06:52:43;15.23;;;7.55;;
51298;SDS011;37382;45.192;9.790;2023-06-10T06:55:11;13.90;;;8.07;;
51298;SDS011;37382;45.192;9.790;2023-06-10T06:57:39;12.00;;;7.25;;
51298;SDS011;37382;45.192;9.790;2023-06-10T07:00:07;13.00;;;7.40;;
51298;SDS011;37382;45.192;9.790;2023-06-10T07:02:36;21.08;;;7.40;;
51298;SDS011;37382;45.192;9.790;2023-06-10T07:05:04;12.60;;;7.13;;
51298;SDS011;37382;45.192;9.790;2023-06-10T07:07:33;13.07;;;7.90;;
51298;SDS011;37382;45.192;9.790;2023-06-10T07:10:00;16.00;;;8.23;;
51298;SDS011;37382;45.192;9.790;2023-06-10T07:12:28;13.00;;;9.10;;
51298;SDS011;37382;45.192;9.790;2023-06-10T07:14:57;20.23;;;8.80;;
51298;SDS011;37382;45.192;9.790;2023-06-10T07:17:25;15.82;;;8.93;;
51298;SDS011;37382;45.192;9.790;2023-06-10T07:19:54;14.77;;;9.23;;
51298;SDS011;37382;45.192;9.790;2023-06-10T07:22:24;13.70;;;9.10;;
51298;SDS011;37382;45.192;9.790;2023-06-10T07:24:52;16.95;;;9.35;;
51298;SDS011;37382;45.192;9.790;2023-06-10T07:27:21;12.40;;;9.15;;
51298;SDS011;37382;45.192;9.790;2023-06-10T07:29:50;35.47;;;10.32;;
51298;SDS011;37382;45.192;9.790;2023-06-10T07:32:18;21.75;;;9.18;;
51298;SDS011;37382;45.192;9.790;2023-06-10T07:34:49;40.28;;;11.20;;
51298;SDS011;37382;45.192;9.790;2023-06-10T07:37:17;24.80;;;10.00;;
51298;SDS011;37382;45.192;9.790;2023-06-10T07:39:47;26.55;;;9.88;;
51298;SDS011;37382;45.192;9.790;2023-06-10T07:42:15;16.88;;;9.02;;
51298;SDS011;37382;45.192;9.790;2023-06-10T07:44:43;18.70;;;8.15;;
51298;SDS011;37382;45.192;9.790;2023-06-10T07:47:10;12.27;;;7.88;;
51298;SDS011;37382;45.192;9.790;2023-06-10T07:49:38;16.35;;;7.88;;
51298;SDS011;37382;45.192;9.790;2023-06-10T07:52:06;16.63;;;7.45;;
51298;SDS011;37382;45.192;9.790;2023-06-10T07:54:34;11.65;;;6.80;;
51298;SDS011;37382;45.192;9.790;2023-06-10T07:57:02;12.23;;;7.22;;
51298;SDS011;37382;45.192;9.790;2023-06-10T07:59:30;14.15;;;8.35;;
51298;SDS011;37382;45.192;9.790;2023-06-10T08:01:58;17.10;;;7.18;;
51298;SDS011;37382;45.192;9.790;2023-06-10T08:04:25;15.25;;;7.32;;
51298;SDS011;37382;45.192;9.790;2023-06-10T08:06:53;16.15;;;7.53;;
51298;SDS011;37382;45.192;9.790;2023-06-10T08:09:21;18.35;;;6.93;;
51298;SDS011;37382;45.192;9.790;2023-06-10T08:11:50;15.82;;;6.75;;
51298;SDS011;37382;45.192;9.790;2023-06-10T08:14:18;14.30;;;7.00;;
51298;SDS011;37382;45.192;9.790;2023-06-10T08:16:45;7.25;;;5.75;;
51298;SDS011;37382;45.192;9.790;2023-06-10T08:19:13;12.52;;;6.60;;
51298;SDS011;37382;45.192;9.790;2023-06-10T08:21:41;12.13;;;6.30;;
51298;SDS011;37382;45.192;9.790;2023-06-10T08:24:09;11.55;;;6.20;;
51298;SDS011;37382;45.192;9.790;2023-06-10T08:26:37;10.35;;;6.63;;
51298;SDS011;37382;45.192;9.790;2023-06-10T08:29:05;12.48;;;5.07;;
51298;SDS011;37382;45.192;9.790;2023-06-10T08:31:33;6.68;;;4.07;;
51298;SDS011;37382;45.192;9.790;2023-06-10T08:34:01;7.68;;;4.72;;
51298;SDS011;37382;45.192;9.790;2023-06-10T08:36:28;10.60;;;3.90;;
51298;SDS011;37382;45.192;9.790;2023-06-10T08:38:56;11.43;;;4.03;;
51298;SDS011;37382;45.192;9.790;2023-06-10T08:41:23;7.43;;;5.47;;
51298;SDS011;37382;45.192;9.790;2023-06-10T08:43:58;11.43;;;4.28;;
51298;SDS011;37382;45.192;9.790;2023-06-10T08:46:33;11.38;;;4.57;;
51298;SDS011;37382;45.192;9.790;2023-06-10T08:49:03;11.30;;;4.90;;
51298;SDS011;37382;45.192;9.790;2023-06-10T08:51:35;18.88;;;5.05;;
51298;SDS011;37382;45.192;9.790;2023-06-10T08:54:15;7.80;;;4.78;;
51298;SDS011;37382;45.192;9.790;2023-06-10T08:56:48;11.38;;;5.85;;
51298;SDS011;37382;45.192;9.790;2023-06-10T08:59:18;11.17;;;5.57;;
51298;SDS011;37382;45.192;9.790;2023-06-10T09:01:47;8.63;;;5.13;;
51298;SDS011;37382;45.192;9.790;2023-06-10T09:04:15;8.63;;;4.68;;
51298;SDS011;37382;45.192;9.790;2023-06-10T09:06:45;7.53;;;4.55;;
51298;SDS011;37382;45.192;9.790;2023-06-10T09:09:14;12.85;;;4.85;;
51298;SDS011;37382;45.192;9.790;2023-06-10T09:11:55;7.07;;;4.30;;
51298;SDS011;37382;45.192;9.790;2023-06-10T09:14:23;7.70;;;4.88;;
51298;SDS011;37382;45.192;9.790;2023-06-10T09:16:50;8.80;;;4.60;;
51298;SDS011;37382;45.192;9.790;2023-06-10T09:19:18;8.75;;;4.45;;
51298;SDS011;37382;45.192;9.790;2023-06-10T09:21:48;8.15;;;4.90;;
51298;SDS011;37382;45.192;9.790;2023-06-10T09:24:15;12.75;;;4.95;;
51298;SDS011;37382;45.192;9.790;2023-06-10T09:26:43;13.90;;;4.57;;
51298;SDS011;37382;45.192;9.790;2023-06-10T09:29:11;9.15;;;4.78;;
51298;SDS011;37382;45.192;9.790;2023-06-10T09:31:39;9.20;;;4.22;;
51298;SDS011;37382;45.192;9.790;2023-06-10T09:34:08;9.30;;;4.40;;
51298;SDS011;37382;45.192;9.790;2023-06-10T09:36:40;7.45;;;3.78;;
51298;SDS011;37382;45.192;9.790;2023-06-10T09:39:15;8.07;;;3.88;;
51298;SDS011;37382;45.192;9.790;2023-06-10T09:41:46;8.27;;;3.70;;
51298;SDS011;37382;45.192;9.790;2023-06-10T09:46:42;7.18;;;3.55;;
51298;SDS011;37382;45.192;9.790;2023-06-10T09:49:12;11.50;;;3.60;;
51298;SDS011;37382;45.192;9.790;2023-06-10T09:51:52;11.32;;;2.97;;
51298;SDS011;37382;45.192;9.790;2023-06-10T09:54:21;24.85;;;5.22;;
51298;SDS011;37382;45.192;9.790;2023-06-10T09:56:51;7.97;;;2.58;;
51298;SDS011;37382;45.192;9.790;2023-06-10T09:59:29;5.75;;;2.55;;
51298;SDS011;37382;45.192;9.790;2023-06-10T10:01:58;8.13;;;2.70;;
51298;SDS011;37382;45.192;9.790;2023-06-10T10:04:27;7.07;;;2.88;;
51298;SDS011;37382;45.192;9.790;2023-06-10T10:06:56;7.25;;;3.00;;
51298;SDS011;37382;45.192;9.790;2023-06-10T10:09:24;9.02;;;2.72;;
51298;SDS011;37382;45.192;9.790;2023-06-10T10:11:51;12.77;;;3.67;;
51298;SDS011;37382;45.192;9.790;2023-06-10T10:14:22;10.45;;;3.00;;
51298;SDS011;37382;45.192;9.790;2023-06-10T10:16:51;9.63;;;3.47;;
51298;SDS011;37382;45.192;9.790;2023-06-10T10:19:20;7.53;;;3.05;;
51298;SDS011;37382;45.192;9.790;2023-06-10T10:21:53;9.32;;;3.60;;
51298;SDS011;37382;45.192;9.790;2023-06-10T10:24:26;11.18;;;4.30;;
51298;SDS011;37382;45.192;9.790;2023-06-10T10:27:01;16.15;;;4.15;;
51298;SDS011;37382;45.192;9.790;2023-06-10T10:29:38;8.27;;;3.85;;
51298;SDS011;37382;45.192;9.790;2023-06-10T10:32:07;8.38;;;3.60;;
51298;SDS011;37382;45.192;9.790;2023-06-10T10:37:31;11.77;;;3.97;;
51298;SDS011;37382;45.192;9.790;2023-06-10T10:40:00;7.18;;;3.63;;
51298;SDS011;37382;45.192;9.790;2023-06-10T10:42:30;8.50;;;3.05;;
51298;SDS011;37382;45.192;9.790;2023-06-10T10:44:58;13.73;;;2.58;;
51298;SDS011;37382;45.192;9.790;2023-06-10T10:47:27;5.05;;;3.20;;
51298;SDS011;37382;45.192;9.790;2023-06-10T10:49:58;6.82;;;3.75;;
51298;SDS011;37382;45.192;9.790;2023-06-10T10:52:27;7.40;;;3.00;;
51298;SDS011;37382;45.192;9.790;2023-06-10T10:55:17;7.68;;;3.50;;
51298;SDS011;37382;45.192;9.790;2023-06-10T10:57:53;7.05;;;2.50;;
51298;SDS011;37382;45.192;9.790;2023-06-10T11:00:29;9.10;;;3.25;;
51298;SDS011;37382;45.192;9.790;2023-06-10T11:03:07;5.30;;;2.40;;
51298;SDS011;37382;45.192;9.790;2023-06-10T11:05:42;6.18;;;2.38;;
51298;SDS011;37382;45.192;9.790;2023-06-10T11:08:15;5.45;;;2.05;;
51298;SDS011;37382;45.192;9.790;2023-06-10T11:13:59;5.45;;;2.80;;
51298;SDS011;37382;45.192;9.790;2023-06-10T11:16:41;6.15;;;3.53;;
51298;SDS011;37382;45.192;9.790;2023-06-10T11:19:09;4.68;;;3.30;;
51298;SDS011;37382;45.192;9.790;2023-06-10T11:21:58;6.15;;;2.72;;
51298;SDS011;37382;45.192;9.790;2023-06-10T11:24:28;7.75;;;3.25;;
51298;SDS011;37382;45.192;9.790;2023-06-10T11:27:14;6.28;;;2.70;;
51298;SDS011;37382;45.192;9.790;2023-06-10T11:32:25;7.53;;;2.83;;
51298;SDS011;37382;45.192;9.790;2023-06-10T11:34:59;6.88;;;2.75;;
51298;SDS011;37382;45.192;9.790;2023-06-10T11:37:27;6.72;;;2.40;;
51298;SDS011;37382;45.192;9.790;2023-06-10T11:39:55;8.95;;;1.92;;
51298;SDS011;37382;45.192;9.790;2023-06-10T11:42:24;8.60;;;2.13;;
51298;SDS011;37382;45.192;9.790;2023-06-10T11:44:52;8.18;;;2.15;;
51298;SDS011;37382;45.192;9.790;2023-06-10T11:47:21;4.68;;;1.90;;
51298;SDS011;37382;45.192;9.790;2023-06-10T11:49:55;3.70;;;1.60;;
51298;SDS011;37382;45.192;9.790;2023-06-10T11:52:29;5.53;;;1.67;;
51298;SDS011;37382;45.192;9.790;2023-06-10T11:54:59;4.65;;;1.77;;
51298;SDS011;37382;45.192;9.790;2023-06-10T11:57:27;6.47;;;2.05;;
51298;SDS011;37382;45.192;9.790;2023-06-10T11:59:54;7.55;;;1.60;;
51298;SDS011;37382;45.192;9.790;2023-06-10T12:02:21;4.85;;;1.95;;
51298;SDS011;37382;45.192;9.790;2023-06-10T12:04:49;6.13;;;1.90;;
51298;SDS011;37382;45.192;9.790;2023-06-10T12:07:20;5.18;;;2.25;;
51298;SDS011;37382;45.192;9.790;2023-06-10T12:09:58;9.02;;;2.55;;
51298;SDS011;37382;45.192;9.790;2023-06-10T12:12:38;5.55;;;2.15;;
51298;SDS011;37382;45.192;9.790;2023-06-10T12:15:05;5.50;;;1.80;;
51298;SDS011;37382;45.192;9.790;2023-06-10T12:17:35;6.40;;;2.55;;
51298;SDS011;37382;45.192;9.790;2023-06-10T12:20:12;2.92;;;1.92;;
51298;SDS011;37382;45.192;9.790;2023-06-10T12:22:53;4.55;;;2.30;;
51298;SDS011;37382;45.192;9.790;2023-06-10T12:25:28;7.90;;;2.15;;
51298;SDS011;37382;45.192;9.790;2023-06-10T12:27:56;4.22;;;2.05;;
51298;SDS011;37382;45.192;9.790;2023-06-10T12:30:26;3.95;;;2.10;;
51298;SDS011;37382;45.192;9.790;2023-06-10T12:32:54;7.82;;;2.13;;
51298;SDS011;37382;45.192;9.790;2023-06-10T12:35:24;3.85;;;2.08;;
51298;SDS011;37382;45.192;9.790;2023-06-10T12:37:54;5.68;;;2.33;;
51298;SDS011;37382;45.192;9.790;2023-06-10T12:40:36;9.70;;;2.47;;
51298;SDS011;37382;45.192;9.790;2023-06-10T12:43:05;6.38;;;2.20;;
51298;SDS011;37382;45.192;9.790;2023-06-10T12:45:34;8.80;;;2.60;;
51298;SDS011;37382;45.192;9.790;2023-06-10T12:48:17;7.90;;;2.85;;
51298;SDS011;37382;45.192;9.790;2023-06-10T12:50:50;8.63;;;2.70;;
51298;SDS011;37382;45.192;9.790;2023-06-10T12:53:19;9.00;;;3.10;;
51298;SDS011;37382;45.192;9.790;2023-06-10T12:55:50;7.60;;;2.90;;
51298;SDS011;37382;45.192;9.790;2023-06-10T12:58:19;7.60;;;2.42;;
51298;SDS011;37382;45.192;9.790;2023-06-10T13:00:47;6.88;;;1.83;;
51298;SDS011;37382;45.192;9.790;2023-06-10T13:03:16;8.18;;;2.55;;
51298;SDS011;37382;45.192;9.790;2023-06-10T13:05:44;6.75;;;2.17;;
51298;SDS011;37382;45.192;9.790;2023-06-10T13:08:12;7.35;;;2.45;;
51298;SDS011;37382;45.192;9.790;2023-06-10T13:10:40;10.63;;;2.72;;
51298;SDS011;37382;45.192;9.790;2023-06-10T13:13:08;6.45;;;2.35;;
51298;SDS011;37382;45.192;9.790;2023-06-10T13:15:37;10.02;;;2.70;;
51298;SDS011;37382;45.192;9.790;2023-06-10T13:18:10;13.98;;;2.60;;
51298;SDS011;37382;45.192;9.790;2023-06-10T13:20:38;10.15;;;2.55;;
51298;SDS011;37382;45.192;9.790;2023-06-10T13:23:06;6.68;;;2.40;;
51298;SDS011;37382;45.192;9.790;2023-06-10T13:25:34;12.25;;;2.53;;
51298;SDS011;37382;45.192;9.790;2023-06-10T13:28:02;10.25;;;2.90;;
51298;SDS011;37382;45.192;9.790;2023-06-10T13:30:29;9.93;;;2.58;;
51298;SDS011;37382;45.192;9.790;2023-06-10T13:32:57;8.55;;;3.08;;
51298;SDS011;37382;45.192;9.790;2023-06-10T13:35:25;5.07;;;2.40;;
51298;SDS011;37382;45.192;9.790;2023-06-10T13:37:52;5.03;;;1.58;;
51298;SDS011;37382;45.192;9.790;2023-06-10T13:40:20;3.38;;;1.80;;
51298;SDS011;37382;45.192;9.790;2023-06-10T13:42:49;7.60;;;2.30;;
51298;SDS011;37382;45.192;9.790;2023-06-10T13:45:18;8.20;;;2.65;;
51298;SDS011;37382;45.192;9.790;2023-06-10T13:47:46;13.85;;;2.90;;
51298;SDS011;37382;45.192;9.790;2023-06-10T13:50:13;9.13;;;2.63;;
51298;SDS011;37382;45.192;9.790;2023-06-10T13:52:41;5.18;;;2.05;;
51298;SDS011;37382;45.192;9.790;2023-06-10T13:55:09;3.08;;;1.75;;
51298;SDS011;37382;45.192;9.790;2023-06-10T13:57:37;6.93;;;2.38;;
51298;SDS011;37382;45.192;9.790;2023-06-10T14:00:05;4.55;;;1.90;;
51298;SDS011;37382;45.192;9.790;2023-06-10T14:02:33;5.05;;;2.10;;
51298;SDS011;37382;45.192;9.790;2023-06-10T14:05:02;7.35;;;2.47;;
51298;SDS011;37382;45.192;9.790;2023-06-10T14:07:32;6.93;;;1.90;;
51298;SDS011;37382;45.192;9.790;2023-06-10T14:10:00;8.70;;;2.35;;
51298;SDS011;37382;45.192;9.790;2023-06-10T14:12:27;5.13;;;2.08;;
51298;SDS011;37382;45.192;9.790;2023-06-10T14:14:55;11.07;;;2.22;;
51298;SDS011;37382;45.192;9.790;2023-06-10T14:17:23;4.72;;;1.90;;
51298;SDS011;37382;45.192;9.790;2023-06-10T14:19:51;6.43;;;2.35;;
51298;SDS011;37382;45.192;9.790;2023-06-10T14:22:19;6.00;;;2.15;;
51298;SDS011;37382;45.192;9.790;2023-06-10T14:24:47;9.68;;;1.80;;
51298;SDS011;37382;45.192;9.790;2023-06-10T14:27:15;7.22;;;1.90;;
51298;SDS011;37382;45.192;9.790;2023-06-10T14:29:42;7.47;;;1.80;;
51298;SDS011;37382;45.192;9.790;2023-06-10T14:32:10;3.58;;;1.63;;
51298;SDS011;37382;45.192;9.790;2023-06-10T14:34:38;7.03;;;1.80;;
51298;SDS011;37382;45.192;9.790;2023-06-10T14:37:06;6.30;;;1.90;;
51298;SDS011;37382;45.192;9.790;2023-06-10T14:39:34;7.63;;;2.10;;
51298;SDS011;37382;45.192;9.790;2023-06-10T14:42:02;4.97;;;2.13;;
51298;SDS011;37382;45.192;9.790;2023-06-10T14:44:30;10.02;;;2.22;;
51298;SDS011;37382;45.192;9.790;2023-06-10T14:46:58;6.20;;;2.08;;
51298;SDS011;37382;45.192;9.790;2023-06-10T14:49:26;9.48;;;2.03;;
51298;SDS011;37382;45.192;9.790;2023-06-10T14:51:53;5.40;;;1.98;;
51298;SDS011;37382;45.192;9.790;2023-06-10T14:54:21;9.23;;;2.03;;
51298;SDS011;37382;45.192;9.790;2023-06-10T14:56:49;5.32;;;2.00;;
51298;SDS011;37382;45.192;9.790;2023-06-10T14:59:17;6.97;;;2.03;;
51298;SDS011;37382;45.192;9.790;2023-06-10T15:01:45;8.55;;;2.20;;
51298;SDS011;37382;45.192;9.790;2023-06-10T15:04:12;5.82;;;1.95;;
51298;SDS011;37382;45.192;9.790;2023-06-10T15:06:40;7.13;;;2.25;;